AirNav   Duncan Aviation - Near you to keep you flying
 
 1009 users online  

FD38 Wellington Aero Club Airport
West Palm Beach, Florida, USA

GOING TO WEST PALM BEACH?


FAA INFORMATION EFFECTIVE 07 OCTOBER 2021

Location

FAA Identifier: FD38
Lat/Long: 26-38-48.1500N 080-17-42.2400W
26-38.802500N 080-17.704000W
26.6467083,-80.2950667
(estimated)
Elevation: 20 ft. / 6 m (estimated)
Variation: 03W (1985)
From city: 11 miles W of WEST PALM BEACH, FL
Time zone: UTC -4 (UTC -5 during Standard Time)
Zip code: 33414

Airport Operations

Airport use: Private use. Permission required prior to landing
Activation date: 06/1985
Control tower: no
ARTCC: MIAMI CENTER
FSS: MIAMI FLIGHT SERVICE STATION
Attendance: CONTINUOUS
Wind indicator: yes
Segmented circle: no
Lights: DUSK-2300; AFTER 0000 ACTVT MIRL 16/34 AND TRIL RYS 16 & 34 - 118.5.
Beacon: white-green (lighted land airport)
DUSK-2300; AFTER 0000 ACTVT ROTG BCN - 118.5.

Airport Communications

WX ASOS at PBI (11 nm E): 123.75 (561-683-2548)
WX AWOS-3PT at LNA (12 nm E): 119.925 (561-964-0308)
WX AWOS-3 at F45 (13 nm N): 119.975 (561-630-6932)
WX AWOS-3 at BCT (19 nm SE): 121.125 (561-391-2696)
  • 122.850 CTAF

Nearby radio navigation aids

VOR radial/distance  VOR name  Freq  Var
PBIr263/11.4PALM BEACH VORTAC115.7003W
PHKr111/22.8PAHOKEE VOR/DME115.4000E
FLLr355/35.1FORT LAUDERDALE VOR/DME114.4006W

 
NDB name  Hdg/Dist  Freq  Var  ID
UNITED177/15.940505WUTX ..- - -..-

Airport Services

Fuel available: 100LL JET-A1

Runway Information

Runway 16/34

Dimensions: 4055 x 75 ft. / 1236 x 23 m
Surface: asphalt, in excellent condition
Runway edge lights: medium intensity
RUNWAY 16  RUNWAY 34
Latitude: 26-39.096000N26-38.509000N
Longitude: 080-17.883000W080-17.525000W
Elevation: 16.0 ft.16.0 ft.
Traffic pattern: leftleft
Markings: basic, in good conditionbasic, in good condition
Visual slope indicator: tri-color VASI on left
Obstructions: 50 ft. pline, 1500 ft. from runway35 ft. pline, 1000 ft. from runway

Airport Ownership and Management from official FAA records

Ownership: Privately-owned
Owner: WELLINGTON AERO CLUB POA
12794 FORREST HILL BLVD STE 31
WELLINGTON, FL 33414-4758
Manager: BARNETT REAL ESTATE
13860 WELLINGTON TRACE SUITE 38-155
WELLINGTON, FL 33414-4758
Phone 561-632-4655

Airport Operational Statistics

Aircraft based on the field: 99
Single engine airplanes: 80
Multi engine airplanes: 16
Helicopters: 3
    

Additional Remarks

118.075 AWOS-1.
FOR CD CTC PALM BEACH APCH AT 561-275-1430

Instrument Procedures

There are no published instrument procedures at FD38.

Some nearby airports with instrument procedures:

KPBI - Palm Beach International Airport (11 nm E)
KLNA - Palm Beach County Park Airport (12 nm E)
F45 - North Palm Beach County General Aviation Airport (13 nm N)
06FA - William P Gwinn Airport (16 nm N)
KBCT - Boca Raton Airport (19 nm SE)
 
Loc | Ops | Rwys | IFR | FBO | Links
Com | Nav | Svcs | Stats | Notes

Reliance Aviation
AirBoss

 
Area around FD38 (Wellington Aero Club Airport)
 
Road maps at: MapQuest Bing Google
 
Aerial photo
WARNING: Photo may not be current or correct
Aerial photo of FD38 (Wellington Aero Club Airport)
Photo taken 19-Sep-2012
looking north.

Do you have a better or more recent aerial photo of Wellington Aero Club Airport that you would like to share? If so, please send us your photo.

 
Sectional chart

 
Airport distance calculator
Flying to Wellington Aero Club Airport? Find the distance to fly.

From to FD38

Sunrise and sunset
Times for 17-Oct-2021
 Local
(UTC-4)
 Zulu
(UTC)
Morning civil twilight06:5910:59
Sunrise07:2311:23
Sunset18:5022:50
Evening civil twilight19:1423:14

Current date and time
Zulu (UTC)  17-Oct-2021 21:38:22
Local (UTC-4)  17-Oct-2021 17:38:22
 
METAR
KPBI 
11nm E 
172053Z 01009KT 10SM SCT033 SCT095 30/21 A2994 RMK AO2 SLP137 T03000211 55004 $
KLNA 
12nm E 
172115Z AUTO 01011KT 10SM SCT031 29/22 A2994 RMK AO2 T02910223 PNO
KF45 
13nm N 
172105Z AUTO 04010G14KT 10SM 29/20 A2996 RMK AO2
KBCT 
19nm SE 
172053Z 03015G20KT 020V090 10SM SCT035 29/22 A2993
TAF
KPBI 
11nm E 
171813Z 1718/1818 02011KT P6SM VCSH SCT025 BKN050 FM180200 03008KT P6SM SCT025 FM181000 04011KT P6SM FEW050 SCT250
NOTAMs
Click for the latest NOTAMs
NOTAMs are issued by the DoD/FAA and will open in a separate window not controlled by AirNav.

 

 
 

Would you like to see your business listed on this page?

 If your business provides an interesting product or service to pilots, flight crews, aircraft, or users of the Wellington Aero Club Airport, you should consider listing it here.  To start the listing process, click on the button below
 
Add a business
 

Other Pages about Wellington Aero Club Airport

www.wellingtonaeroclub.com
 
Update a link
 
Copyright © AirNav, LLC. All rights reserved. Privacy Policy  Contact